Time;durP1;ratioP1;P1;durP2;ratioP2;P2;SDS_P1;SDS_P2;PMS_P1;PMS_P2;Temp;Humidity;BMP_temperature;BMP_pressure;BME280_temperature;BME280_humidity;BME280_pressure;Samples;Min_cycle;Max_cycle;Signal;HPM_P1;HPM_P2
2021/10/26 00:00:21;;;;;;;7.93;7.23;;;11.20;83.10;;;;;;5108781;28;20620;-37
2021/10/26 00:02:47;;;;;;;7.83;7.03;;;11.10;83.10;;;;;;5111432;28;20187;-37
2021/10/26 00:05:13;;;;;;;6.47;5.87;;;11.10;83.30;;;;;;5110948;28;20177;-39
2021/10/26 00:07:39;;;;;;;6.63;5.93;;;11.10;83.50;;;;;;5110142;28;20492;-38
2021/10/26 00:10:08;;;;;;;9.30;6.97;;;11.10;83.70;;;;;;5110515;28;20823;-37
2021/10/26 00:12:35;;;;;;;7.43;6.80;;;11.10;83.90;;;;;;5111077;28;20481;-38
2021/10/26 00:15:01;;;;;;;7.13;6.43;;;11.10;84.10;;;;;;5094737;28;20398;-38
2021/10/26 00:17:27;;;;;;;7.07;6.37;;;11.10;84.30;;;;;;5110121;28;20450;-41
2021/10/26 00:19:52;;;;;;;7.13;6.50;;;11.00;84.40;;;;;;5095887;28;20429;-41
2021/10/26 00:22:18;;;;;;;7.00;6.33;;;11.00;84.80;;;;;;5110046;28;20557;-41
2021/10/26 00:24:44;;;;;;;8.83;7.93;;;11.00;85.00;;;;;;5110413;28;20433;-38
2021/10/26 00:27:10;;;;;;;7.30;6.60;;;11.00;85.20;;;;;;5095048;28;20196;-38
2021/10/26 00:29:36;;;;;;;11.60;7.67;;;11.00;85.40;;;;;;5108305;28;20824;-40
2021/10/26 00:32:02;;;;;;;7.70;7.00;;;11.00;85.70;;;;;;5109666;28;20277;-37
2021/10/26 00:34:28;;;;;;;7.40;6.70;;;11.00;85.90;;;;;;5109609;28;20181;-39
2021/10/26 00:36:54;;;;;;;7.43;6.57;;;11.10;86.10;;;;;;5092533;28;20458;-46
2021/10/26 00:39:21;;;;;;;7.20;6.60;;;11.10;86.30;;;;;;5110507;28;20604;-46
2021/10/26 00:41:47;;;;;;;11.17;7.43;;;11.10;86.40;;;;;;5107967;28;20423;-47
2021/10/26 00:44:13;;;;;;;8.87;7.10;;;11.10;86.70;;;;;;5108727;28;20203;-46
2021/10/26 00:46:39;;;;;;;8.50;7.33;;;11.10;87.60;;;;;;5108060;28;20422;-46
2021/10/26 00:49:09;;;;;;;7.83;7.03;;;11.10;87.10;;;;;;5109908;28;20447;-46
2021/10/26 00:51:35;;;;;;;7.90;6.87;;;11.20;87.50;;;;;;5110362;28;20180;-46
2021/10/26 00:54:05;;;;;;;7.80;7.03;;;11.20;87.60;;;;;;5110237;28;20432;-46
2021/10/26 00:56:32;;;;;;;7.57;6.87;;;11.20;87.60;;;;;;5092926;28;20458;-46
2021/10/26 00:58:58;;;;;;;7.40;6.23;;;11.20;87.60;;;;;;5108414;28;20460;-46
2021/10/26 01:01:24;;;;;;;7.30;6.57;;;11.20;87.80;;;;;;5109232;28;20449;-46
2021/10/26 01:03:50;;;;;;;7.40;6.40;;;11.20;87.90;;;;;;5109357;28;20441;-46
2021/10/26 01:06:16;;;;;;;6.73;6.03;;;11.20;88.00;;;;;;5107554;28;20426;-46
2021/10/26 01:08:43;;;;;;;7.20;6.50;;;11.20;88.10;;;;;;5108324;28;20453;-52
2021/10/26 01:11:09;;;;;;;8.00;7.30;;;11.20;88.20;;;;;;5094207;28;20418;-46
2021/10/26 01:13:35;;;;;;;6.93;6.27;;;11.20;88.40;;;;;;5094579;28;20467;-46
2021/10/26 01:16:02;;;;;;;7.50;6.80;;;11.20;88.90;;;;;;5108725;28;20241;-45
2021/10/26 01:18:29;;;;;;;7.57;6.80;;;11.20;89.50;;;;;;5110622;28;20442;-46
2021/10/26 01:20:55;;;;;;;7.50;6.70;;;11.20;88.80;;;;;;5112808;28;20426;-46
2021/10/26 01:23:22;;;;;;;7.27;6.67;;;11.30;88.80;;;;;;5108757;28;20470;-46
2021/10/26 01:25:48;;;;;;;7.00;6.30;;;11.20;88.70;;;;;;5109022;28;20533;-46
2021/10/26 01:28:14;;;;;;;7.00;6.40;;;11.30;88.70;;;;;;5106991;28;20563;-46
2021/10/26 01:30:41;;;;;;;8.00;7.07;;;11.30;88.70;;;;;;5093130;28;20422;-44
2021/10/26 01:33:07;;;;;;;8.13;7.03;;;11.30;88.80;;;;;;5093250;28;20433;-46
2021/10/26 01:35:35;;;;;;;8.67;6.80;;;11.30;88.70;;;;;;5111978;28;20803;-46
2021/10/26 01:38:02;;;;;;;6.97;6.27;;;11.30;88.80;;;;;;5110450;28;20517;-47
2021/10/26 01:40:28;;;;;;;8.20;7.40;;;11.30;88.70;;;;;;5109054;28;20429;-46
2021/10/26 01:42:54;;;;;;;9.20;7.47;;;11.40;88.90;;;;;;5098236;28;20424;-46
2021/10/26 01:45:20;;;;;;;8.63;7.73;;;11.30;88.80;;;;;;5097379;28;20860;-46
2021/10/26 01:47:46;;;;;;;8.67;7.80;;;11.30;89.00;;;;;;5098061;28;20191;-46
2021/10/26 01:50:14;;;;;;;7.43;6.73;;;11.30;89.10;;;;;;5097823;28;20234;-46
2021/10/26 01:52:40;;;;;;;8.93;8.03;;;11.40;89.20;;;;;;5098170;28;20422;-45
2021/10/26 01:55:07;;;;;;;9.93;9.03;;;11.40;89.00;;;;;;5098111;28;20492;-46
2021/10/26 01:57:34;;;;;;;11.87;9.07;;;11.40;89.20;;;;;;5098086;28;20470;-46
2021/10/26 02:00:01;;;;;;;8.93;7.23;;;11.40;89.40;;;;;;5097808;28;20414;-46
2021/10/26 02:02:26;;;;;;;10.23;8.27;;;11.40;89.60;;;;;;5097710;28;20877;-46
2021/10/26 02:04:52;;;;;;;8.50;7.70;;;11.40;89.70;;;;;;5097736;28;20495;-46
2021/10/26 02:07:18;;;;;;;8.77;8.07;;;11.40;89.90;;;;;;5097526;28;20173;-46
2021/10/26 02:09:44;;;;;;;9.07;8.03;;;11.40;90.00;;;;;;5097722;28;20517;-46
2021/10/26 02:12:10;;;;;;;8.43;7.53;;;11.40;90.10;;;;;;5097962;28;20203;-46
2021/10/26 02:14:36;;;;;;;10.37;9.30;;;11.40;90.20;;;;;;5097684;28;20527;-46
2021/10/26 02:17:04;;;;;;;10.80;8.20;;;11.40;90.30;;;;;;5097703;28;20281;-46
2021/10/26 02:19:30;;;;;;;9.20;8.30;;;11.40;90.40;;;;;;5097878;28;20418;-46
2021/10/26 02:21:56;;;;;;;8.43;7.73;;;11.40;90.50;;;;;;5097408;28;20836;-46
2021/10/26 02:24:22;;;;;;;8.27;7.43;;;11.40;90.50;;;;;;5097510;28;20863;-46
2021/10/26 02:26:47;;;;;;;8.93;8.03;;;11.40;90.60;;;;;;5095896;28;20438;-46
2021/10/26 02:29:13;;;;;;;9.93;7.80;;;11.40;90.80;;;;;;5096090;28;20584;-47
2021/10/26 02:31:39;;;;;;;10.90;8.37;;;11.40;91.00;;;;;;5097183;28;20212;-46
2021/10/26 02:34:05;;;;;;;8.20;7.40;;;11.40;91.20;;;;;;5097441;28;20187;-46
2021/10/26 02:36:33;;;;;;;10.27;8.77;;;11.30;91.30;;;;;;5097249;28;20222;-45
2021/10/26 02:38:59;;;;;;;7.50;6.80;;;11.30;91.40;;;;;;5079299;28;20709;-46
2021/10/26 02:41:25;;;;;;;10.83;7.90;;;11.30;91.40;;;;;;5096770;28;20424;-47
2021/10/26 02:43:51;;;;;;;8.73;7.83;;;11.40;91.40;;;;;;5096778;28;20246;-46
2021/10/26 02:46:16;;;;;;;7.80;7.10;;;11.40;91.50;;;;;;5097266;28;20832;-46
2021/10/26 02:48:43;;;;;;;7.87;7.07;;;11.40;91.50;;;;;;5097612;28;20301;-46
2021/10/26 02:51:10;;;;;;;9.30;7.83;;;11.40;91.50;;;;;;5097194;28;20184;-46
2021/10/26 02:53:35;;;;;;;8.67;7.80;;;11.40;91.80;;;;;;5079450;28;20529;-46
2021/10/26 02:56:01;;;;;;;9.17;8.20;;;11.40;91.60;;;;;;5097137;28;20596;-46
2021/10/26 02:58:27;;;;;;;9.00;7.93;;;11.40;91.60;;;;;;5099427;28;20263;-46
2021/10/26 03:00:52;;;;;;;8.83;7.97;;;11.40;91.60;;;;;;5099898;28;20172;-46
2021/10/26 03:03:18;;;;;;;9.73;7.40;;;11.40;91.70;;;;;;5099555;28;20275;-45
2021/10/26 03:05:44;;;;;;;8.47;7.67;;;11.40;91.70;;;;;;5099736;28;20218;-46
2021/10/26 03:08:10;;;;;;;8.50;7.70;;;11.40;91.70;;;;;;5099151;28;20717;-46
2021/10/26 03:10:36;;;;;;;8.77;7.97;;;11.40;91.70;;;;;;5099566;28;20177;-46
2021/10/26 03:13:02;;;;;;;8.30;7.50;;;11.40;91.80;;;;;;5099387;28;20500;-46
2021/10/26 03:15:29;;;;;;;9.27;8.47;;;11.40;91.80;;;;;;5081223;28;20184;-46
2021/10/26 03:17:55;;;;;;;9.27;8.30;;;11.40;91.90;;;;;;5099604;28;20426;-46
2021/10/26 03:20:21;;;;;;;8.63;7.73;;;11.40;91.90;;;;;;5099597;28;20410;-46
2021/10/26 03:22:46;;;;;;;8.63;7.53;;;11.40;91.90;;;;;;5100611;28;20264;-46
2021/10/26 03:25:12;;;;;;;9.40;7.87;;;11.40;92.00;;;;;;5100201;28;20185;-45
2021/10/26 03:27:38;;;;;;;10.60;8.20;;;11.40;92.00;;;;;;5099743;28;20238;-46
2021/10/26 03:30:05;;;;;;;8.90;8.10;;;11.30;92.00;;;;;;5100423;28;20200;-46
2021/10/26 03:32:31;;;;;;;8.57;7.70;;;11.30;92.00;;;;;;5100260;28;20681;-46
2021/10/26 03:34:57;;;;;;;8.33;7.53;;;11.30;92.10;;;;;;5100391;28;20421;-46
2021/10/26 03:37:22;;;;;;;8.30;7.50;;;11.30;92.20;;;;;;5099956;28;20205;-46
2021/10/26 03:39:54;;;;;;;9.13;8.23;;;11.30;92.30;;;;;;5100070;28;20180;-46
2021/10/26 03:42:20;;;;;;;8.20;7.40;;;11.30;92.40;;;;;;5099825;28;20522;-46
2021/10/26 03:44:47;;;;;;;8.60;7.60;;;11.30;92.80;;;;;;5100248;28;20730;-46
2021/10/26 03:47:12;;;;;;;8.43;7.63;;;11.30;92.50;;;;;;5099755;28;20824;-46
2021/10/26 03:49:38;;;;;;;7.83;7.07;;;11.20;92.50;;;;;;5081802;28;20429;-46
2021/10/26 03:52:04;;;;;;;7.83;7.13;;;11.20;92.50;;;;;;5081816;28;20187;-46
2021/10/26 03:54:29;;;;;;;8.60;7.67;;;11.20;92.50;;;;;;5099738;28;20195;-46
2021/10/26 03:56:55;;;;;;;8.37;7.50;;;11.20;92.50;;;;;;5098922;28;20514;-45
2021/10/26 03:59:22;;;;;;;8.53;7.73;;;11.20;92.70;;;;;;5099084;28;20298;-45
2021/10/26 04:01:48;;;;;;;8.53;7.40;;;11.20;92.60;;;;;;5098602;28;20334;-46
2021/10/26 04:04:13;;;;;;;7.43;6.73;;;11.20;92.60;;;;;;5098397;28;20534;-44
2021/10/26 04:06:42;;;;;;;7.97;6.57;;;11.20;92.60;;;;;;5098707;28;20169;-44
2021/10/26 04:09:10;;;;;;;9.30;8.40;;;11.20;92.70;;;;;;5098011;28;20186;-44
2021/10/26 04:11:50;;;;;;;7.80;7.13;;;11.20;92.60;;;;;;5098343;28;20417;-45
2021/10/26 04:14:16;;;;;;;8.47;7.67;;;11.20;92.60;;;;;;5099222;28;20516;-43
2021/10/26 04:16:41;;;;;;;8.40;7.47;;;11.10;92.50;;;;;;5099698;28;20993;-43
2021/10/26 04:19:09;;;;;;;8.30;7.47;;;11.10;92.60;;;;;;5099292;28;20437;-43
2021/10/26 04:21:34;;;;;;;8.87;7.97;;;11.10;92.60;;;;;;5097937;28;20169;-43
2021/10/26 04:24:01;;;;;;;9.17;8.17;;;11.10;92.70;;;;;;5097160;28;20433;-44
2021/10/26 04:26:27;;;;;;;8.70;7.80;;;11.10;92.70;;;;;;5108891;28;20275;-44
2021/10/26 04:28:53;;;;;;;9.93;8.00;;;11.10;92.70;;;;;;5117390;28;20810;-47
2021/10/26 04:31:19;;;;;;;9.13;7.90;;;11.10;92.80;;;;;;5100564;28;20195;-43
2021/10/26 04:33:45;;;;;;;8.87;8.00;;;11.10;92.90;;;;;;5117993;28;20418;-43
2021/10/26 04:36:10;;;;;;;12.10;7.80;;;11.10;92.90;;;;;;5117927;28;20219;-43
2021/10/26 04:38:36;;;;;;;8.00;7.27;;;11.00;92.80;;;;;;5116758;28;20188;-44
2021/10/26 04:41:07;;;;;;;8.97;8.07;;;11.00;92.90;;;;;;5097909;28;20445;-44
2021/10/26 04:43:36;;;;;;;8.03;7.27;;;11.00;92.90;;;;;;5113163;28;20185;-45
2021/10/26 04:46:02;;;;;;;7.70;7.00;;;11.00;93.00;;;;;;5107988;28;20407;-46
2021/10/26 04:48:28;;;;;;;8.70;7.90;;;11.00;93.00;;;;;;5075486;28;20453;-45
2021/10/26 04:50:54;;;;;;;9.63;7.80;;;11.00;93.10;;;;;;5110474;28;20438;-42
2021/10/26 04:53:20;;;;;;;7.97;7.20;;;11.00;93.10;;;;;;5117876;28;20507;-45
2021/10/26 04:55:46;;;;;;;9.43;7.20;;;11.00;93.10;;;;;;5117221;28;20211;-45
2021/10/26 04:58:12;;;;;;;9.27;8.30;;;11.00;93.20;;;;;;5117686;28;20418;-43
2021/10/26 05:00:38;;;;;;;7.97;7.27;;;11.00;93.20;;;;;;5117579;28;20666;-44
2021/10/26 05:03:03;;;;;;;8.80;7.90;;;11.00;93.20;;;;;;5117403;28;20180;-45
2021/10/26 05:05:29;;;;;;;9.13;8.23;;;11.00;93.20;;;;;;5116066;28;20727;-45
2021/10/26 05:07:55;;;;;;;8.50;7.70;;;11.00;93.10;;;;;;5117942;28;20595;-46
2021/10/26 05:10:20;;;;;;;10.07;9.10;;;11.00;93.10;;;;;;5117209;28;20185;-45
2021/10/26 05:12:46;;;;;;;10.03;8.90;;;11.00;93.20;;;;;;5117414;28;20177;-43
2021/10/26 05:15:12;;;;;;;9.87;8.40;;;10.90;93.20;;;;;;5116762;28;20184;-46
2021/10/26 05:17:39;;;;;;;9.73;8.73;;;10.90;93.20;;;;;;5116503;28;20229;-46
2021/10/26 05:20:07;;;;;;;11.30;10.20;;;10.90;93.30;;;;;;5089685;28;20181;-44
2021/10/26 05:22:34;;;;;;;10.10;9.10;;;10.90;93.40;;;;;;5071117;28;20410;-45
2021/10/26 05:24:59;;;;;;;12.10;10.07;;;10.90;93.40;;;;;;5104741;28;20406;-43
2021/10/26 05:27:25;;;;;;;11.30;9.80;;;10.90;93.30;;;;;;5104103;28;20311;-47
2021/10/26 05:29:52;;;;;;;10.80;9.80;;;10.90;93.30;;;;;;5104792;28;20632;-45
2021/10/26 05:32:18;;;;;;;10.80;9.77;;;10.80;93.30;;;;;;5113952;28;20181;-45
2021/10/26 05:34:44;;;;;;;12.03;9.87;;;10.80;93.30;;;;;;5109383;28;20456;-44
2021/10/26 05:37:10;;;;;;;10.17;9.27;;;10.80;93.40;;;;;;5115290;28;20454;-47
2021/10/26 05:39:38;;;;;;;10.33;9.20;;;10.80;93.30;;;;;;5115336;28;20751;-46
2021/10/26 05:42:05;;;;;;;11.50;9.80;;;10.80;93.40;;;;;;5114395;28;20406;-45
2021/10/26 05:44:31;;;;;;;10.27;9.27;;;10.80;93.30;;;;;;5111055;28;20430;-45
2021/10/26 05:46:56;;;;;;;11.00;10.00;;;10.80;93.30;;;;;;5112958;28;20410;-45
2021/10/26 05:49:22;;;;;;;10.17;9.27;;;10.80;93.30;;;;;;5111880;28;20543;-45
2021/10/26 05:51:48;;;;;;;10.23;9.23;;;10.80;93.30;;;;;;5110858;28;20633;-44
2021/10/26 05:54:14;;;;;;;9.70;8.43;;;10.80;93.40;;;;;;5092508;28;20787;-44
2021/10/26 05:56:39;;;;;;;9.63;8.73;;;10.80;93.40;;;;;;5109218;28;20296;-44
2021/10/26 05:59:05;;;;;;;10.20;9.30;;;10.80;93.40;;;;;;5112541;28;20363;-44
2021/10/26 06:01:30;;;;;;;8.90;8.07;;;10.80;93.50;;;;;;5114288;28;20181;-44
2021/10/26 06:03:56;;;;;;;11.03;9.70;;;10.80;93.60;;;;;;5113123;28;20505;-43
2021/10/26 06:06:22;;;;;;;9.37;8.40;;;10.80;93.60;;;;;;5095450;28;20198;-44
2021/10/26 06:08:51;;;;;;;10.23;9.33;;;10.80;93.60;;;;;;5113893;28;20539;-43
2021/10/26 06:11:20;;;;;;;10.67;9.57;;;10.80;93.60;;;;;;5116119;28;20178;-43
2021/10/26 06:13:50;;;;;;;10.80;9.60;;;10.80;93.60;;;;;;5098485;28;20735;-44
2021/10/26 06:16:15;;;;;;;10.20;8.23;;;10.90;93.70;;;;;;5113704;28;20456;-44
2021/10/26 06:18:41;;;;;;;9.43;8.23;;;10.90;93.70;;;;;;5111614;28;20529;-45
2021/10/26 06:21:07;;;;;;;9.93;8.97;;;10.90;93.70;;;;;;5093229;28;20563;-45
2021/10/26 06:23:33;;;;;;;9.80;8.63;;;10.90;93.70;;;;;;5093062;28;20532;-44
2021/10/26 06:26:00;;;;;;;10.40;9.30;;;10.90;93.80;;;;;;5092121;28;20188;-44
2021/10/26 06:28:26;;;;;;;9.47;8.57;;;11.00;93.90;;;;;;5090989;28;20847;-43
2021/10/26 06:30:52;;;;;;;8.90;8.10;;;11.00;93.90;;;;;;5092837;28;20418;-44
2021/10/26 06:33:17;;;;;;;10.07;9.07;;;11.00;94.00;;;;;;5097993;28;20422;-44
2021/10/26 06:35:43;;;;;;;9.40;8.40;;;11.10;94.00;;;;;;5098679;28;20209;-43
2021/10/26 06:38:09;;;;;;;9.40;8.50;;;11.10;94.00;;;;;;5109364;28;20193;-44
2021/10/26 06:40:35;;;;;;;9.97;8.97;;;11.10;94.00;;;;;;5117786;28;20484;-46
2021/10/26 06:43:01;;;;;;;9.90;8.90;;;11.20;94.00;;;;;;5119335;28;20194;-44
2021/10/26 06:45:27;;;;;;;9.90;8.83;;;11.30;94.10;;;;;;5120538;28;20402;-43
2021/10/26 06:47:53;;;;;;;9.80;8.80;;;11.30;94.10;;;;;;5120706;28;20183;-46
2021/10/26 06:50:18;;;;;;;9.40;8.50;;;11.30;94.00;;;;;;5101902;28;20834;-45
2021/10/26 06:52:44;;;;;;;8.80;8.10;;;11.40;94.00;;;;;;5119680;28;20448;-43
2021/10/26 06:55:16;;;;;;;9.00;8.10;;;11.50;94.00;;;;;;5100887;28;20570;-42
2021/10/26 06:57:43;;;;;;;5.67;5.07;;;11.50;94.00;;;;;;5100648;28;20306;-43
2021/10/26 07:00:10;;;;;;;6.03;3.67;;;11.70;95.50;;;;;;5117932;28;20682;-42
2021/10/26 07:02:45;;;;;;;5.10;4.53;;;12.20;97.20;;;;;;5119291;28;20428;-45
2021/10/26 07:05:11;;;;;;;5.33;4.50;;;12.70;97.70;;;;;;5119593;28;20412;-46
2021/10/26 07:07:36;;;;;;;4.00;3.60;;;13.10;97.80;;;;;;5120056;28;20440;-46
2021/10/26 07:10:04;;;;;;;7.80;5.23;;;13.40;97.30;;;;;;5102098;28;20229;-44
2021/10/26 07:12:30;;;;;;;9.03;4.27;;;13.80;96.80;;;;;;5119372;28;20284;-45
2021/10/26 07:14:56;;;;;;;8.47;4.73;;;14.00;96.10;;;;;;5119898;28;20707;-47
2021/10/26 07:17:22;;;;;;;5.30;4.70;;;14.30;95.60;;;;;;5119168;28;20456;-44
2021/10/26 07:19:47;;;;;;;5.00;4.60;;;14.50;95.20;;;;;;5119968;28;20461;-43
2021/10/26 07:22:13;;;;;;;6.13;5.53;;;14.60;94.70;;;;;;5118358;28;20177;-44
2021/10/26 07:24:40;;;;;;;5.13;4.57;;;14.80;94.40;;;;;;5119262;28;20187;-43
2021/10/26 07:27:06;;;;;;;5.80;5.03;;;14.90;94.00;;;;;;5118088;28;20188;-44
2021/10/26 07:29:31;;;;;;;5.83;5.30;;;15.10;93.80;;;;;;5119182;28;20425;-45
2021/10/26 07:31:57;;;;;;;5.67;5.17;;;15.20;93.50;;;;;;5120559;28;20562;-48
2021/10/26 07:34:23;;;;;;;5.30;4.77;;;15.40;93.30;;;;;;5119174;28;20271;-43
2021/10/26 07:36:51;;;;;;;5.00;4.47;;;15.50;93.00;;;;;;5117974;28;20294;-45
2021/10/26 07:41:53;;;;;;;6.33;4.67;;;15.80;92.40;;;;;;5115918;28;20838;-44
2021/10/26 07:44:20;;;;;;;6.50;5.83;;;16.00;92.00;;;;;;5097884;28;20426;-46
2021/10/26 07:46:45;;;;;;;7.40;6.67;;;16.10;91.50;;;;;;5117010;28;20419;-47
2021/10/26 07:49:11;;;;;;;9.17;7.77;;;16.00;90.50;;;;;;5115314;28;20424;-45
2021/10/26 07:51:37;;;;;;;8.70;7.97;;;15.90;89.30;;;;;;5115511;28;20265;-48
2021/10/26 07:54:03;;;;;;;9.37;8.47;;;15.70;88.80;;;;;;5115516;28;20277;-46
2021/10/26 07:56:29;;;;;;;10.23;9.17;;;15.50;88.90;;;;;;5116292;28;20486;-45
2021/10/26 07:58:56;;;;;;;9.60;8.70;;;15.40;89.20;;;;;;5116808;28;20453;-48
2021/10/26 08:01:22;;;;;;;11.10;10.00;;;15.30;89.50;;;;;;5115204;28;20283;-46
2021/10/26 08:03:47;;;;;;;9.50;8.67;;;15.30;89.80;;;;;;5115378;28;20913;-43
2021/10/26 08:06:14;;;;;;;9.70;8.70;;;15.20;89.90;;;;;;5116217;28;20768;-47
2021/10/26 08:08:42;;;;;;;9.43;8.63;;;15.20;90.00;;;;;;5115730;28;20200;-45
2021/10/26 08:11:08;;;;;;;9.00;8.07;;;15.20;90.10;;;;;;5116330;28;20852;-45
2021/10/26 08:13:33;;;;;;;9.53;8.20;;;15.30;90.10;;;;;;5117198;28;20783;-45
2021/10/26 08:16:00;;;;;;;10.33;9.20;;;15.40;90.10;;;;;;5117788;28;20284;-44
2021/10/26 08:18:26;;;;;;;9.87;9.03;;;15.60;90.20;;;;;;5117063;28;20191;-45
2021/10/26 08:20:51;;;;;;;8.43;7.70;;;15.70;90.00;;;;;;5117556;28;20459;-46
2021/10/26 08:23:20;;;;;;;8.80;8.00;;;15.90;89.80;;;;;;5115948;28;20428;-46
2021/10/26 08:25:49;;;;;;;9.53;8.53;;;16.00;89.40;;;;;;5114620;28;20185;-45
2021/10/26 08:28:17;;;;;;;8.90;7.73;;;16.10;89.10;;;;;;5093239;28;20911;-44
2021/10/26 08:30:56;;;;;;;7.40;6.70;;;16.30;88.80;;;;;;5095060;28;20399;-45
2021/10/26 08:35:56;;;;;;;7.63;6.90;;;16.70;88.20;;;;;;5097697;28;20456;-45
2021/10/26 08:38:22;;;;;;;7.80;7.00;;;17.00;87.80;;;;;;5095284;28;20864;-45
2021/10/26 08:40:47;;;;;;;6.97;6.23;;;17.20;87.50;;;;;;5094575;28;20176;-45
2021/10/26 08:43:18;;;;;;;6.40;5.80;;;17.60;87.30;;;;;;5095262;28;20643;-45
2021/10/26 08:45:48;;;;;;;7.13;6.20;;;18.00;86.60;;;;;;5095413;28;20185;-47
2021/10/26 08:48:20;;;;;;;7.43;6.17;;;18.30;85.40;;;;;;5095784;28;20517;-46
2021/10/26 08:50:51;;;;;;;5.73;5.23;;;18.60;84.80;;;;;;5095541;28;20875;-47
2021/10/26 08:53:19;;;;;;;5.77;5.27;;;18.80;83.90;;;;;;5094428;28;20856;-48
2021/10/26 08:55:56;;;;;;;7.00;6.03;;;19.00;83.30;;;;;;5093487;28;20417;-45
2021/10/26 08:58:25;;;;;;;5.87;5.37;;;19.20;82.60;;;;;;5093143;28;20511;-44
2021/10/26 09:00:52;;;;;;;5.77;5.20;;;19.90;81.80;;;;;;5095826;28;20411;-45
2021/10/26 09:03:23;;;;;;;5.63;4.90;;;20.80;78.80;;;;;;5095962;28;20429;-46
2021/10/26 09:05:53;;;;;;;4.90;4.40;;;21.70;76.70;;;;;;5096358;28;20723;-47
2021/10/26 09:08:23;;;;;;;4.50;4.10;;;22.60;74.20;;;;;;5095773;28;20462;-47
2021/10/26 09:10:50;;;;;;;4.27;3.87;;;23.00;71.60;;;;;;5096342;28;20414;-43
2021/10/26 09:16:50;;;;;;;5.10;4.07;;;23.20;67.10;;;;;;5095425;28;20895;-42
2021/10/26 09:19:42;;;;;;;4.33;3.93;;;23.10;65.90;;;;;;5072580;28;20853;-46
2021/10/26 09:22:08;;;;;;;3.90;3.50;;;23.20;64.60;;;;;;5075303;28;20411;-44
2021/10/26 09:24:34;;;;;;;7.70;3.40;;;23.00;63.90;;;;;;5075373;28;20434;-44
2021/10/26 09:27:02;;;;;;;3.83;3.53;;;22.80;63.20;;;;;;5057419;28;20423;-48
2021/10/26 09:29:32;;;;;;;4.60;3.77;;;22.50;62.50;;;;;;5056117;28;20198;-47
2021/10/26 09:32:14;;;;;;;3.33;3.03;;;22.20;62.70;;;;;;5073227;28;20909;-43
2021/10/26 09:34:44;;;;;;;4.47;3.10;;;21.90;63.20;;;;;;5073002;28;20443;-44
2021/10/26 09:37:12;;;;;;;3.80;3.13;;;21.60;63.40;;;;;;5056558;28;20460;-42
2021/10/26 09:39:38;;;;;;;3.57;3.27;;;21.50;63.90;;;;;;5074651;28;20427;-43
2021/10/26 09:42:08;;;;;;;4.13;3.00;;;21.40;64.30;;;;;;5073408;28;20407;-45
2021/10/26 09:44:46;;;;;;;5.20;3.50;;;21.30;64.50;;;;;;5073134;28;20833;-42
2021/10/26 09:47:26;;;;;;;4.63;3.47;;;21.20;64.40;;;;;;5073560;28;20429;-43
2021/10/26 09:49:52;;;;;;;4.73;3.20;;;21.10;64.50;;;;;;5062988;28;20525;-46
2021/10/26 09:52:22;;;;;;;4.00;3.00;;;21.00;64.30;;;;;;5094957;28;20415;-45
2021/10/26 09:57:49;;;;;;;5.80;3.33;;;21.40;63.70;;;;;;5094708;28;20505;-45
2021/10/26 10:00:29;;;;;;;3.93;3.00;;;22.00;62.70;;;;;;5094483;28;20411;-44
2021/10/26 10:03:13;;;;;;;4.40;3.70;;;22.60;61.30;;;;;;5097489;28;20457;-45
2021/10/26 10:05:54;;;;;;;5.40;3.47;;;23.40;59.70;;;;;;5081429;28;20537;-44
2021/10/26 10:08:34;;;;;;;5.30;3.13;;;23.70;58.50;;;;;;5099499;28;20430;-47
2021/10/26 10:11:19;;;;;;;2.93;2.63;;;24.00;57.70;;;;;;5100272;28;20563;-45
2021/10/26 10:13:55;;;;;;;3.57;3.27;;;24.20;56.70;;;;;;5098149;28;20415;-45
2021/10/26 10:16:21;;;;;;;3.77;3.47;;;24.70;56.20;;;;;;5096291;28;20502;-47
2021/10/26 10:18:54;;;;;;;4.10;3.30;;;25.40;55.00;;;;;;5095987;28;20646;-45
2021/10/26 10:21:28;;;;;;;4.87;3.63;;;25.80;53.70;;;;;;5096218;28;20512;-45
2021/10/26 10:23:59;;;;;;;3.90;3.50;;;26.00;52.80;;;;;;5096591;28;20821;-45
2021/10/26 10:26:27;;;;;;;4.20;3.80;;;26.30;51.90;;;;;;5097454;28;20791;-45
2021/10/26 10:28:55;;;;;;;3.40;3.10;;;26.40;51.30;;;;;;5114918;28;20548;-48
2021/10/26 10:31:25;;;;;;;5.20;4.67;;;26.30;51.20;;;;;;5099205;28;20431;-45
2021/10/26 10:33:54;;;;;;;4.90;4.00;;;25.90;51.00;;;;;;5099087;28;20473;-46
2021/10/26 10:36:22;;;;;;;4.30;3.90;;;25.60;51.30;;;;;;5082005;28;20479;-44
2021/10/26 10:39:00;;;;;;;3.43;3.10;;;25.40;52.00;;;;;;5100493;28;20477;-44
2021/10/26 10:41:32;;;;;;;4.13;3.70;;;25.20;52.50;;;;;;5081502;28;20462;-47
2021/10/26 10:44:02;;;;;;;3.37;3.07;;;25.50;52.80;;;;;;5101016;28;20961;-46
2021/10/26 10:46:45;;;;;;;4.20;3.80;;;27.20;51.50;;;;;;5099559;28;20427;-45
2021/10/26 10:49:22;;;;;;;4.53;3.40;;;29.10;49.10;;;;;;5081762;28;21107;-48
2021/10/26 10:52:21;;;;;;;6.67;3.33;;;30.20;46.90;;;;;;5097064;28;20447;-45
2021/10/26 10:54:55;;;;;;;4.83;3.40;;;30.60;45.30;;;;;;5092085;28;20437;-46
2021/10/26 10:57:29;;;;;;;3.13;2.83;;;30.30;44.10;;;;;;5098790;28;20462;-46
2021/10/26 10:59:57;;;;;;;3.90;3.03;;;30.00;43.60;;;;;;5079196;28;20461;-44
2021/10/26 11:02:36;;;;;;;3.33;2.50;;;29.80;43.10;;;;;;5097960;28;20448;-45
2021/10/26 11:05:04;;;;;;;2.77;2.20;;;29.90;42.90;;;;;;5099000;28;20551;-44
2021/10/26 11:07:43;;;;;;;4.07;2.83;;;30.70;42.20;;;;;;5100177;28;20421;-46
2021/10/26 11:10:15;;;;;;;2.90;2.30;;;31.90;41.30;;;;;;5105818;28;20433;-47
2021/10/26 11:12:43;;;;;;;2.60;2.37;;;32.50;40.00;;;;;;5100202;28;20417;-44
2021/10/26 11:15:12;;;;;;;3.67;2.40;;;32.60;39.00;;;;;;5100433;28;20409;-44
2021/10/26 11:17:43;;;;;;;2.20;2.00;;;32.50;38.70;;;;;;5113018;28;20944;-46
2021/10/26 11:20:26;;;;;;;3.40;2.23;;;32.20;38.20;;;;;;5117131;28;20638;-44
2021/10/26 11:23:04;;;;;;;2.83;1.67;;;31.80;38.10;;;;;;5116045;28;20435;-45
2021/10/26 11:25:40;;;;;;;2.43;1.90;;;31.30;38.30;;;;;;5115766;28;20404;-44
2021/10/26 11:28:28;;;;;;;2.53;1.80;;;31.00;38.70;;;;;;5116788;28;20445;-45
2021/10/26 11:31:01;;;;;;;2.20;1.90;;;30.70;39.00;;;;;;5098671;28;20460;-43
2021/10/26 11:33:28;;;;;;;3.80;2.23;;;30.00;39.30;;;;;;5097869;28;20918;-44
2021/10/26 11:36:05;;;;;;;2.13;1.93;;;29.00;39.80;;;;;;5079266;28;20480;-44
2021/10/26 11:38:37;;;;;;;3.40;2.67;;;27.90;40.60;;;;;;5096841;28;20472;-46
2021/10/26 11:41:23;;;;;;;2.70;2.10;;;26.80;41.80;;;;;;5095616;28;20423;-43
2021/10/26 11:43:58;;;;;;;2.40;2.20;;;25.90;42.70;;;;;;5078986;28;20412;-45
2021/10/26 11:46:29;;;;;;;3.30;2.00;;;25.20;43.80;;;;;;5096865;28;20995;-43
2021/10/26 11:48:59;;;;;;;3.40;2.07;;;24.70;44.60;;;;;;5095899;28;20498;-47
2021/10/26 11:51:35;;;;;;;2.60;2.00;;;24.10;45.20;;;;;;5096071;28;20442;-44
2021/10/26 11:54:08;;;;;;;3.57;2.00;;;23.70;45.90;;;;;;5096991;28;20443;-44
2021/10/26 11:56:47;;;;;;;4.13;1.70;;;23.30;46.40;;;;;;5080351;28;20567;-45
2021/10/26 11:59:25;;;;;;;2.03;1.37;;;23.00;46.90;;;;;;5080322;28;20443;-45
2021/10/26 12:01:56;;;;;;;2.40;1.77;;;22.70;47.10;;;;;;5096813;28;20415;-45
2021/10/26 12:04:35;;;;;;;2.27;1.57;;;22.60;47.40;;;;;;5096940;28;20407;-44
2021/10/26 12:07:07;;;;;;;1.90;1.40;;;22.40;47.50;;;;;;5078988;28;20419;-44
2021/10/26 12:09:39;;;;;;;2.57;1.60;;;22.30;47.70;;;;;;5098159;28;20428;-44
2021/10/26 12:12:13;;;;;;;3.43;1.67;;;22.30;48.00;;;;;;5101718;28;20838;-43
2021/10/26 12:14:43;;;;;;;3.03;1.53;;;22.20;48.10;;;;;;5095828;28;20417;-43
2021/10/26 12:17:20;;;;;;;3.63;1.60;;;22.30;48.40;;;;;;5115457;28;20909;-45
2021/10/26 12:19:57;;;;;;;2.27;1.70;;;22.30;48.40;;;;;;5116966;28;20418;-43
2021/10/26 12:22:31;;;;;;;2.60;1.37;;;22.40;48.20;;;;;;5116906;28;21020;-45
2021/10/26 12:25:13;;;;;;;2.57;1.80;;;22.60;47.90;;;;;;5117681;28;20838;-43
2021/10/26 12:27:48;;;;;;;2.50;1.30;;;23.00;47.50;;;;;;5117783;28;20767;-43
2021/10/26 12:30:21;;;;;;;2.20;1.40;;;24.30;47.00;;;;;;5117470;28;20425;-48
2021/10/26 12:32:58;;;;;;;2.67;1.70;;;25.70;45.60;;;;;;5117693;28;20407;-44
2021/10/26 12:35:26;;;;;;;5.40;1.97;;;27.00;44.00;;;;;;5118525;28;20441;-44
2021/10/26 12:38:12;;;;;;;2.63;1.70;;;27.70;42.60;;;;;;5118688;28;20462;-47
2021/10/26 12:40:43;;;;;;;2.63;1.97;;;27.70;42.00;;;;;;5098946;28;20426;-45
2021/10/26 12:43:09;;;;;;;1.90;1.43;;;27.60;42.00;;;;;;5098251;28;20405;-45
2021/10/26 12:45:37;;;;;;;2.50;1.40;;;27.30;42.10;;;;;;5097729;28;20423;-45
2021/10/26 12:48:12;;;;;;;2.73;1.40;;;27.00;42.50;;;;;;5097779;28;20399;-45
2021/10/26 12:50:43;;;;;;;2.20;1.20;;;26.70;43.00;;;;;;5095827;28;20872;-45
2021/10/26 12:53:14;;;;;;;2.37;1.50;;;26.40;43.20;;;;;;5096591;28;20491;-43
2021/10/26 12:55:41;;;;;;;1.70;1.17;;;26.10;43.50;;;;;;5078760;28;20438;-45
2021/10/26 12:58:39;;;;;;;1.90;1.23;;;25.60;44.10;;;;;;5078004;28;21040;-44
2021/10/26 13:01:16;;;;;;;2.30;1.07;;;25.10;44.80;;;;;;5096327;28;20416;-44
2021/10/26 13:03:57;;;;;;;2.40;1.20;;;24.70;45.20;;;;;;5095347;28;20407;-47